sensor_id;sensor_type;location;lat;lon;timestamp;P1;durP1;ratioP1;P2;durP2;ratioP2
22191;SDS011;11261;52.456;10.850;2023-05-02T00:00:08;2.70;;;1.42;;
22191;SDS011;11261;52.456;10.850;2023-05-02T00:02:38;3.35;;;0.95;;
22191;SDS011;11261;52.456;10.850;2023-05-02T00:05:08;5.25;;;1.08;;
22191;SDS011;11261;52.456;10.850;2023-05-02T00:07:36;2.30;;;1.10;;
22191;SDS011;11261;52.456;10.850;2023-05-02T00:10:05;2.65;;;1.23;;
22191;SDS011;11261;52.456;10.850;2023-05-02T00:12:34;2.42;;;1.15;;
22191;SDS011;11261;52.456;10.850;2023-05-02T00:15:02;3.42;;;1.13;;
22191;SDS011;11261;52.456;10.850;2023-05-02T00:17:31;3.33;;;1.02;;
22191;SDS011;11261;52.456;10.850;2023-05-02T00:19:59;2.45;;;1.10;;
22191;SDS011;11261;52.456;10.850;2023-05-02T00:22:31;3.72;;;1.38;;
22191;SDS011;11261;52.456;10.850;2023-05-02T00:24:59;6.97;;;1.58;;
22191;SDS011;11261;52.456;10.850;2023-05-02T00:27:28;3.05;;;1.15;;
22191;SDS011;11261;52.456;10.850;2023-05-02T00:29:56;4.80;;;1.40;;
22191;SDS011;11261;52.456;10.850;2023-05-02T00:32:25;3.85;;;1.27;;
22191;SDS011;11261;52.456;10.850;2023-05-02T00:34:54;2.53;;;1.17;;
22191;SDS011;11261;52.456;10.850;2023-05-02T00:37:24;2.78;;;0.85;;
22191;SDS011;11261;52.456;10.850;2023-05-02T00:39:55;2.90;;;1.30;;
22191;SDS011;11261;52.456;10.850;2023-05-02T00:42:24;2.53;;;1.50;;
22191;SDS011;11261;52.456;10.850;2023-05-02T00:44:54;2.03;;;1.10;;
22191;SDS011;11261;52.456;10.850;2023-05-02T00:47:22;1.73;;;1.10;;
22191;SDS011;11261;52.456;10.850;2023-05-02T00:49:50;2.45;;;1.17;;
22191;SDS011;11261;52.456;10.850;2023-05-02T00:52:19;1.50;;;0.90;;
22191;SDS011;11261;52.456;10.850;2023-05-02T00:54:47;1.25;;;1.02;;
22191;SDS011;11261;52.456;10.850;2023-05-02T00:57:17;2.72;;;1.10;;
22191;SDS011;11261;52.456;10.850;2023-05-02T00:59:45;2.28;;;1.33;;
22191;SDS011;11261;52.456;10.850;2023-05-02T01:02:24;1.67;;;1.15;;
22191;SDS011;11261;52.456;10.850;2023-05-02T01:04:59;1.38;;;0.98;;
22191;SDS011;11261;52.456;10.850;2023-05-02T01:07:43;1.95;;;1.23;;
22191;SDS011;11261;52.456;10.850;2023-05-02T01:10:29;3.97;;;1.20;;
22191;SDS011;11261;52.456;10.850;2023-05-02T01:13:18;1.20;;;1.10;;
22191;SDS011;11261;52.456;10.850;2023-05-02T01:15:49;1.70;;;1.20;;
22191;SDS011;11261;52.456;10.850;2023-05-02T01:18:24;1.83;;;1.35;;
22191;SDS011;11261;52.456;10.850;2023-05-02T01:20:58;3.50;;;1.27;;
22191;SDS011;11261;52.456;10.850;2023-05-02T01:23:30;1.92;;;1.17;;
22191;SDS011;11261;52.456;10.850;2023-05-02T01:26:12;1.48;;;1.13;;
22191;SDS011;11261;52.456;10.850;2023-05-02T01:28:51;3.58;;;1.20;;
22191;SDS011;11261;52.456;10.850;2023-05-02T01:31:24;2.70;;;1.30;;
22191;SDS011;11261;52.456;10.850;2023-05-02T01:33:53;4.22;;;1.77;;
22191;SDS011;11261;52.456;10.850;2023-05-02T01:36:24;3.72;;;1.42;;
22191;SDS011;11261;52.456;10.850;2023-05-02T01:38:56;1.73;;;1.40;;
22191;SDS011;11261;52.456;10.850;2023-05-02T01:41:26;2.30;;;1.20;;
22191;SDS011;11261;52.456;10.850;2023-05-02T01:43:57;2.28;;;1.33;;
22191;SDS011;11261;52.456;10.850;2023-05-02T01:46:29;3.53;;;1.58;;
22191;SDS011;11261;52.456;10.850;2023-05-02T01:49:00;1.83;;;1.52;;
22191;SDS011;11261;52.456;10.850;2023-05-02T01:51:29;3.78;;;1.45;;
22191;SDS011;11261;52.456;10.850;2023-05-02T01:54:00;3.95;;;1.60;;
22191;SDS011;11261;52.456;10.850;2023-05-02T01:56:31;3.20;;;1.80;;
22191;SDS011;11261;52.456;10.850;2023-05-02T01:59:04;3.63;;;1.70;;
22191;SDS011;11261;52.456;10.850;2023-05-02T02:01:35;3.67;;;1.58;;
22191;SDS011;11261;52.456;10.850;2023-05-02T02:04:05;3.78;;;1.85;;
22191;SDS011;11261;52.456;10.850;2023-05-02T02:06:38;4.07;;;2.33;;
22191;SDS011;11261;52.456;10.850;2023-05-02T02:09:08;4.45;;;1.80;;
22191;SDS011;11261;52.456;10.850;2023-05-02T02:11:39;4.40;;;2.83;;
22191;SDS011;11261;52.456;10.850;2023-05-02T02:14:16;4.40;;;2.30;;
22191;SDS011;11261;52.456;10.850;2023-05-02T02:16:46;5.10;;;2.30;;
22191;SDS011;11261;52.456;10.850;2023-05-02T02:19:17;5.15;;;2.05;;
22191;SDS011;11261;52.456;10.850;2023-05-02T02:21:46;4.50;;;2.33;;
22191;SDS011;11261;52.456;10.850;2023-05-02T02:24:17;5.88;;;2.10;;
22191;SDS011;11261;52.456;10.850;2023-05-02T02:26:49;5.13;;;2.15;;
22191;SDS011;11261;52.456;10.850;2023-05-02T02:29:19;7.80;;;2.35;;
22191;SDS011;11261;52.456;10.850;2023-05-02T02:31:47;4.35;;;1.95;;
22191;SDS011;11261;52.456;10.850;2023-05-02T02:34:16;4.80;;;2.38;;
22191;SDS011;11261;52.456;10.850;2023-05-02T02:36:44;3.65;;;2.35;;
22191;SDS011;11261;52.456;10.850;2023-05-02T02:39:20;8.98;;;3.28;;
22191;SDS011;11261;52.456;10.850;2023-05-02T02:42:04;6.25;;;2.90;;
22191;SDS011;11261;52.456;10.850;2023-05-02T02:44:40;4.60;;;2.55;;
22191;SDS011;11261;52.456;10.850;2023-05-02T02:47:17;5.63;;;2.90;;
22191;SDS011;11261;52.456;10.850;2023-05-02T02:49:54;6.15;;;2.80;;
22191;SDS011;11261;52.456;10.850;2023-05-02T02:52:34;4.95;;;2.90;;
22191;SDS011;11261;52.456;10.850;2023-05-02T02:55:16;6.03;;;2.78;;
22191;SDS011;11261;52.456;10.850;2023-05-02T02:57:54;4.10;;;2.70;;
22191;SDS011;11261;52.456;10.850;2023-05-02T03:00:28;5.13;;;2.72;;
22191;SDS011;11261;52.456;10.850;2023-05-02T03:02:58;5.38;;;2.72;;
22191;SDS011;11261;52.456;10.850;2023-05-02T03:05:27;6.22;;;3.13;;
22191;SDS011;11261;52.456;10.850;2023-05-02T03:07:57;6.22;;;2.67;;
22191;SDS011;11261;52.456;10.850;2023-05-02T03:10:26;5.47;;;2.88;;
22191;SDS011;11261;52.456;10.850;2023-05-02T03:12:54;5.75;;;3.03;;
22191;SDS011;11261;52.456;10.850;2023-05-02T03:15:27;8.05;;;3.05;;
22191;SDS011;11261;52.456;10.850;2023-05-02T03:18:15;7.25;;;3.40;;
22191;SDS011;11261;52.456;10.850;2023-05-02T03:20:44;6.38;;;3.20;;
22191;SDS011;11261;52.456;10.850;2023-05-02T03:23:12;6.20;;;3.47;;
22191;SDS011;11261;52.456;10.850;2023-05-02T03:25:41;6.10;;;3.53;;
22191;SDS011;11261;52.456;10.850;2023-05-02T03:28:09;6.80;;;3.92;;
22191;SDS011;11261;52.456;10.850;2023-05-02T03:30:38;11.88;;;3.97;;
22191;SDS011;11261;52.456;10.850;2023-05-02T03:33:08;5.82;;;3.78;;
22191;SDS011;11261;52.456;10.850;2023-05-02T03:35:37;7.05;;;4.18;;
22191;SDS011;11261;52.456;10.850;2023-05-02T03:38:05;6.50;;;3.97;;
22191;SDS011;11261;52.456;10.850;2023-05-02T03:40:33;5.55;;;3.72;;
22191;SDS011;11261;52.456;10.850;2023-05-02T03:43:02;6.85;;;4.15;;
22191;SDS011;11261;52.456;10.850;2023-05-02T03:45:30;6.93;;;4.03;;
22191;SDS011;11261;52.456;10.850;2023-05-02T03:47:58;6.97;;;4.47;;
22191;SDS011;11261;52.456;10.850;2023-05-02T03:50:28;4.60;;;3.13;;
22191;SDS011;11261;52.456;10.850;2023-05-02T03:52:57;7.22;;;4.15;;
22191;SDS011;11261;52.456;10.850;2023-05-02T03:55:25;8.45;;;3.72;;
22191;SDS011;11261;52.456;10.850;2023-05-02T03:57:54;7.68;;;3.50;;
22191;SDS011;11261;52.456;10.850;2023-05-02T04:00:22;7.68;;;3.90;;
22191;SDS011;11261;52.456;10.850;2023-05-02T04:02:51;7.05;;;3.42;;
22191;SDS011;11261;52.456;10.850;2023-05-02T04:05:19;6.72;;;3.90;;
22191;SDS011;11261;52.456;10.850;2023-05-02T04:07:49;7.00;;;3.78;;
22191;SDS011;11261;52.456;10.850;2023-05-02T04:10:17;7.40;;;3.78;;
22191;SDS011;11261;52.456;10.850;2023-05-02T04:12:45;8.98;;;3.90;;
22191;SDS011;11261;52.456;10.850;2023-05-02T04:15:14;8.70;;;5.07;;
22191;SDS011;11261;52.456;10.850;2023-05-02T04:17:42;7.85;;;4.25;;
22191;SDS011;11261;52.456;10.850;2023-05-02T04:20:10;8.98;;;4.97;;
22191;SDS011;11261;52.456;10.850;2023-05-02T04:22:39;9.35;;;5.13;;
22191;SDS011;11261;52.456;10.850;2023-05-02T04:25:09;10.65;;;5.97;;
22191;SDS011;11261;52.456;10.850;2023-05-02T04:27:37;9.40;;;4.88;;
22191;SDS011;11261;52.456;10.850;2023-05-02T04:30:06;8.35;;;4.85;;
22191;SDS011;11261;52.456;10.850;2023-05-02T04:32:35;13.05;;;5.47;;
22191;SDS011;11261;52.456;10.850;2023-05-02T04:35:04;9.38;;;5.32;;
22191;SDS011;11261;52.456;10.850;2023-05-02T04:37:33;10.48;;;5.53;;
22191;SDS011;11261;52.456;10.850;2023-05-02T04:40:02;9.93;;;5.30;;
22191;SDS011;11261;52.456;10.850;2023-05-02T04:42:32;9.45;;;5.43;;
22191;SDS011;11261;52.456;10.850;2023-05-02T04:45:00;11.77;;;6.07;;
22191;SDS011;11261;52.456;10.850;2023-05-02T04:47:29;13.27;;;6.35;;
22191;SDS011;11261;52.456;10.850;2023-05-02T04:49:57;12.32;;;6.60;;
22191;SDS011;11261;52.456;10.850;2023-05-02T04:52:26;11.40;;;6.50;;
22191;SDS011;11261;52.456;10.850;2023-05-02T04:54:54;14.20;;;6.43;;
22191;SDS011;11261;52.456;10.850;2023-05-02T04:57:22;13.65;;;7.28;;
22191;SDS011;11261;52.456;10.850;2023-05-02T04:59:52;12.68;;;6.82;;
22191;SDS011;11261;52.456;10.850;2023-05-02T05:02:20;13.07;;;7.30;;
22191;SDS011;11261;52.456;10.850;2023-05-02T05:04:51;13.00;;;7.13;;
22191;SDS011;11261;52.456;10.850;2023-05-02T05:07:19;14.55;;;6.40;;
22191;SDS011;11261;52.456;10.850;2023-05-02T05:09:47;13.07;;;7.53;;
22191;SDS011;11261;52.456;10.850;2023-05-02T05:12:18;13.45;;;7.07;;
22191;SDS011;11261;52.456;10.850;2023-05-02T05:14:46;17.27;;;8.23;;
22191;SDS011;11261;52.456;10.850;2023-05-02T05:17:17;17.05;;;8.30;;
22191;SDS011;11261;52.456;10.850;2023-05-02T05:19:45;14.90;;;8.23;;
22191;SDS011;11261;52.456;10.850;2023-05-02T05:22:14;13.70;;;7.68;;
22191;SDS011;11261;52.456;10.850;2023-05-02T05:24:42;16.67;;;8.50;;
22191;SDS011;11261;52.456;10.850;2023-05-02T05:27:18;13.60;;;7.03;;
22191;SDS011;11261;52.456;10.850;2023-05-02T05:29:46;14.85;;;7.95;;
22191;SDS011;11261;52.456;10.850;2023-05-02T05:32:16;15.82;;;8.13;;
22191;SDS011;11261;52.456;10.850;2023-05-02T05:34:45;13.93;;;8.00;;
22191;SDS011;11261;52.456;10.850;2023-05-02T05:37:13;15.93;;;8.40;;
22191;SDS011;11261;52.456;10.850;2023-05-02T05:39:41;16.42;;;8.45;;
22191;SDS011;11261;52.456;10.850;2023-05-02T05:42:10;15.90;;;7.88;;
22191;SDS011;11261;52.456;10.850;2023-05-02T05:44:39;13.38;;;8.07;;
22191;SDS011;11261;52.456;10.850;2023-05-02T05:47:07;11.93;;;7.53;;
22191;SDS011;11261;52.456;10.850;2023-05-02T05:49:37;17.67;;;8.90;;
22191;SDS011;11261;52.456;10.850;2023-05-02T05:52:05;15.43;;;8.50;;
22191;SDS011;11261;52.456;10.850;2023-05-02T05:54:33;13.52;;;8.10;;
22191;SDS011;11261;52.456;10.850;2023-05-02T05:57:02;16.08;;;9.18;;
22191;SDS011;11261;52.456;10.850;2023-05-02T05:59:30;14.27;;;7.70;;
22191;SDS011;11261;52.456;10.850;2023-05-02T06:02:01;13.85;;;7.63;;
22191;SDS011;11261;52.456;10.850;2023-05-02T06:04:30;12.75;;;7.13;;
22191;SDS011;11261;52.456;10.850;2023-05-02T06:07:00;18.45;;;7.53;;
22191;SDS011;11261;52.456;10.850;2023-05-02T06:09:28;11.48;;;6.95;;
22191;SDS011;11261;52.456;10.850;2023-05-02T06:11:56;14.30;;;7.38;;
22191;SDS011;11261;52.456;10.850;2023-05-02T06:14:25;12.15;;;6.88;;
22191;SDS011;11261;52.456;10.850;2023-05-02T06:16:53;10.85;;;6.60;;
22191;SDS011;11261;52.456;10.850;2023-05-02T06:19:21;12.05;;;6.68;;
22191;SDS011;11261;52.456;10.850;2023-05-02T06:21:49;12.75;;;6.70;;
22191;SDS011;11261;52.456;10.850;2023-05-02T06:24:19;7.35;;;3.90;;
22191;SDS011;11261;52.456;10.850;2023-05-02T06:26:47;8.30;;;5.22;;
22191;SDS011;11261;52.456;10.850;2023-05-02T06:29:16;6.40;;;4.38;;
22191;SDS011;11261;52.456;10.850;2023-05-02T06:31:45;8.88;;;4.82;;
22191;SDS011;11261;52.456;10.850;2023-05-02T06:34:13;10.30;;;5.35;;
22191;SDS011;11261;52.456;10.850;2023-05-02T06:36:41;8.68;;;5.18;;
22191;SDS011;11261;52.456;10.850;2023-05-02T06:39:09;8.38;;;4.28;;
22191;SDS011;11261;52.456;10.850;2023-05-02T06:41:39;8.23;;;4.30;;
22191;SDS011;11261;52.456;10.850;2023-05-02T06:44:07;6.75;;;3.50;;
22191;SDS011;11261;52.456;10.850;2023-05-02T06:46:35;6.32;;;3.30;;
22191;SDS011;11261;52.456;10.850;2023-05-02T06:49:04;5.00;;;3.20;;
22191;SDS011;11261;52.456;10.850;2023-05-02T06:51:32;3.35;;;2.25;;
22191;SDS011;11261;52.456;10.850;2023-05-02T06:54:01;4.65;;;2.08;;
22191;SDS011;11261;52.456;10.850;2023-05-02T06:56:29;2.22;;;1.30;;
22191;SDS011;11261;52.456;10.850;2023-05-02T06:58:59;3.35;;;1.33;;
22191;SDS011;11261;52.456;10.850;2023-05-02T07:01:27;2.88;;;1.00;;
22191;SDS011;11261;52.456;10.850;2023-05-02T07:03:55;1.50;;;1.05;;
22191;SDS011;11261;52.456;10.850;2023-05-02T07:06:24;1.83;;;1.05;;
22191;SDS011;11261;52.456;10.850;2023-05-02T07:08:53;1.40;;;0.98;;
22191;SDS011;11261;52.456;10.850;2023-05-02T07:11:21;1.02;;;0.80;;
22191;SDS011;11261;52.456;10.850;2023-05-02T07:13:50;1.50;;;0.90;;
22191;SDS011;11261;52.456;10.850;2023-05-02T07:16:20;0.95;;;0.60;;
22191;SDS011;11261;52.456;10.850;2023-05-02T07:18:49;1.20;;;0.70;;
22191;SDS011;11261;52.456;10.850;2023-05-02T07:21:17;2.83;;;1.17;;
22191;SDS011;11261;52.456;10.850;2023-05-02T07:23:45;2.50;;;0.98;;
22191;SDS011;11261;52.456;10.850;2023-05-02T07:26:14;1.58;;;1.08;;
22191;SDS011;11261;52.456;10.850;2023-05-02T07:28:44;5.50;;;1.35;;
22191;SDS011;11261;52.456;10.850;2023-05-02T07:31:12;4.47;;;1.65;;
22191;SDS011;11261;52.456;10.850;2023-05-02T07:33:45;4.50;;;1.40;;
22191;SDS011;11261;52.456;10.850;2023-05-02T07:36:13;4.72;;;1.80;;
22191;SDS011;11261;52.456;10.850;2023-05-02T07:38:43;4.18;;;1.70;;
22191;SDS011;11261;52.456;10.850;2023-05-02T07:41:12;7.18;;;2.03;;
22191;SDS011;11261;52.456;10.850;2023-05-02T07:43:40;3.33;;;1.73;;
22191;SDS011;11261;52.456;10.850;2023-05-02T07:46:08;4.68;;;2.10;;
22191;SDS011;11261;52.456;10.850;2023-05-02T07:48:37;8.10;;;1.83;;
22191;SDS011;11261;52.456;10.850;2023-05-02T07:51:08;5.65;;;2.17;;
22191;SDS011;11261;52.456;10.850;2023-05-02T07:53:37;4.47;;;1.98;;
22191;SDS011;11261;52.456;10.850;2023-05-02T07:56:06;2.85;;;1.42;;
22191;SDS011;11261;52.456;10.850;2023-05-02T07:58:34;6.13;;;2.15;;
22191;SDS011;11261;52.456;10.850;2023-05-02T08:01:03;4.35;;;2.03;;
22191;SDS011;11261;52.456;10.850;2023-05-02T08:03:31;4.50;;;1.95;;
22191;SDS011;11261;52.456;10.850;2023-05-02T08:06:00;4.95;;;1.90;;
22191;SDS011;11261;52.456;10.850;2023-05-02T08:08:30;3.72;;;1.80;;
22191;SDS011;11261;52.456;10.850;2023-05-02T08:10:59;8.38;;;2.10;;
22191;SDS011;11261;52.456;10.850;2023-05-02T08:13:27;5.43;;;2.05;;
22191;SDS011;11261;52.456;10.850;2023-05-02T08:15:55;5.47;;;1.98;;
22191;SDS011;11261;52.456;10.850;2023-05-02T08:18:24;4.97;;;1.50;;
22191;SDS011;11261;52.456;10.850;2023-05-02T08:20:53;7.75;;;2.03;;
22191;SDS011;11261;52.456;10.850;2023-05-02T08:23:21;9.02;;;1.73;;
22191;SDS011;11261;52.456;10.850;2023-05-02T08:25:51;6.57;;;1.65;;
22191;SDS011;11261;52.456;10.850;2023-05-02T08:28:19;4.10;;;1.75;;
22191;SDS011;11261;52.456;10.850;2023-05-02T08:30:47;6.35;;;1.60;;
22191;SDS011;11261;52.456;10.850;2023-05-02T08:33:15;6.60;;;2.00;;
22191;SDS011;11261;52.456;10.850;2023-05-02T08:35:44;4.63;;;1.50;;
22191;SDS011;11261;52.456;10.850;2023-05-02T08:38:12;3.33;;;1.52;;
22191;SDS011;11261;52.456;10.850;2023-05-02T08:40:40;3.15;;;1.70;;
22191;SDS011;11261;52.456;10.850;2023-05-02T08:43:12;3.72;;;1.58;;
22191;SDS011;11261;52.456;10.850;2023-05-02T08:45:43;2.97;;;1.55;;
22191;SDS011;11261;52.456;10.850;2023-05-02T08:48:11;5.90;;;1.70;;
22191;SDS011;11261;52.456;10.850;2023-05-02T08:50:42;2.72;;;0.77;;
22191;SDS011;11261;52.456;10.850;2023-05-02T08:53:13;4.68;;;1.63;;
22191;SDS011;11261;52.456;10.850;2023-05-02T08:55:43;3.30;;;1.52;;
22191;SDS011;11261;52.456;10.850;2023-05-02T08:58:12;6.95;;;1.45;;
22191;SDS011;11261;52.456;10.850;2023-05-02T09:00:42;4.10;;;1.40;;
22191;SDS011;11261;52.456;10.850;2023-05-02T09:03:17;3.13;;;1.05;;
22191;SDS011;11261;52.456;10.850;2023-05-02T09:05:52;6.00;;;1.70;;
22191;SDS011;11261;52.456;10.850;2023-05-02T09:08:33;5.30;;;1.50;;
22191;SDS011;11261;52.456;10.850;2023-05-02T09:11:01;4.40;;;1.35;;
22191;SDS011;11261;52.456;10.850;2023-05-02T09:13:33;5.05;;;1.25;;
22191;SDS011;11261;52.456;10.850;2023-05-02T09:16:03;5.55;;;1.23;;
22191;SDS011;11261;52.456;10.850;2023-05-02T09:18:33;2.67;;;1.10;;
22191;SDS011;11261;52.456;10.850;2023-05-02T09:21:04;1.75;;;1.00;;
22191;SDS011;11261;52.456;10.850;2023-05-02T09:23:37;2.47;;;1.30;;
22191;SDS011;11261;52.456;10.850;2023-05-02T09:26:14;9.88;;;1.50;;
22191;SDS011;11261;52.456;10.850;2023-05-02T09:28:45;2.28;;;1.05;;
22191;SDS011;11261;52.456;10.850;2023-05-02T09:31:15;7.28;;;1.10;;
22191;SDS011;11261;52.456;10.850;2023-05-02T09:34:07;3.83;;;1.70;;
22191;SDS011;11261;52.456;10.850;2023-05-02T09:36:38;5.32;;;1.63;;
22191;SDS011;11261;52.456;10.850;2023-05-02T09:39:08;7.00;;;1.48;;
22191;SDS011;11261;52.456;10.850;2023-05-02T09:41:39;5.32;;;1.63;;
22191;SDS011;11261;52.456;10.850;2023-05-02T09:44:10;7.85;;;1.70;;
22191;SDS011;11261;52.456;10.850;2023-05-02T09:46:39;8.10;;;1.85;;
22191;SDS011;11261;52.456;10.850;2023-05-02T09:49:08;4.35;;;1.77;;
22191;SDS011;11261;52.456;10.850;2023-05-02T09:51:36;5.28;;;1.70;;
22191;SDS011;11261;52.456;10.850;2023-05-02T09:54:04;3.03;;;1.35;;
22191;SDS011;11261;52.456;10.850;2023-05-02T09:56:36;5.05;;;1.20;;
22191;SDS011;11261;52.456;10.850;2023-05-02T09:59:21;5.20;;;1.25;;
22191;SDS011;11261;52.456;10.850;2023-05-02T10:01:55;2.97;;;0.98;;
22191;SDS011;11261;52.456;10.850;2023-05-02T10:04:25;3.00;;;1.10;;
22191;SDS011;11261;52.456;10.850;2023-05-02T10:06:55;3.08;;;1.25;;
22191;SDS011;11261;52.456;10.850;2023-05-02T10:09:25;3.05;;;1.10;;
22191;SDS011;11261;52.456;10.850;2023-05-02T10:11:54;4.47;;;1.45;;
22191;SDS011;11261;52.456;10.850;2023-05-02T10:14:24;4.13;;;1.33;;
22191;SDS011;11261;52.456;10.850;2023-05-02T10:16:58;3.47;;;1.42;;
22191;SDS011;11261;52.456;10.850;2023-05-02T10:19:28;4.50;;;1.23;;
22191;SDS011;11261;52.456;10.850;2023-05-02T10:21:59;6.45;;;1.50;;
22191;SDS011;11261;52.456;10.850;2023-05-02T10:24:30;5.20;;;1.08;;
22191;SDS011;11261;52.456;10.850;2023-05-02T10:26:59;4.32;;;1.17;;
22191;SDS011;11261;52.456;10.850;2023-05-02T10:29:30;6.63;;;1.30;;
22191;SDS011;11261;52.456;10.850;2023-05-02T10:31:59;6.45;;;1.70;;
22191;SDS011;11261;52.456;10.850;2023-05-02T10:34:30;7.93;;;1.80;;
22191;SDS011;11261;52.456;10.850;2023-05-02T10:36:59;4.55;;;1.23;;
22191;SDS011;11261;52.456;10.850;2023-05-02T10:39:28;4.05;;;1.45;;
22191;SDS011;11261;52.456;10.850;2023-05-02T10:41:58;2.17;;;0.85;;
22191;SDS011;11261;52.456;10.850;2023-05-02T10:44:34;4.20;;;1.20;;
22191;SDS011;11261;52.456;10.850;2023-05-02T10:47:16;5.10;;;2.17;;
22191;SDS011;11261;52.456;10.850;2023-05-02T10:49:50;2.00;;;1.20;;
22191;SDS011;11261;52.456;10.850;2023-05-02T10:52:26;6.82;;;1.50;;
22191;SDS011;11261;52.456;10.850;2023-05-02T11:00:50;5.82;;;1.60;;
22191;SDS011;11261;52.456;10.850;2023-05-02T11:06:22;3.45;;;2.03;;
22191;SDS011;11261;52.456;10.850;2023-05-02T11:08:52;2.83;;;1.50;;
22191;SDS011;11261;52.456;10.850;2023-05-02T11:11:41;5.32;;;1.23;;
22191;SDS011;11261;52.456;10.850;2023-05-02T11:14:10;3.03;;;1.35;;
22191;SDS011;11261;52.456;10.850;2023-05-02T11:22:53;3.15;;;1.48;;
22191;SDS011;11261;52.456;10.850;2023-05-02T11:25:32;4.63;;;1.60;;
22191;SDS011;11261;52.456;10.850;2023-05-02T11:28:04;5.18;;;1.38;;
22191;SDS011;11261;52.456;10.850;2023-05-02T11:30:37;1.45;;;1.05;;
22191;SDS011;11261;52.456;10.850;2023-05-02T11:33:12;5.78;;;1.75;;
22191;SDS011;11261;52.456;10.850;2023-05-02T11:35:43;5.05;;;1.90;;
22191;SDS011;11261;52.456;10.850;2023-05-02T11:38:17;6.38;;;1.45;;
22191;SDS011;11261;52.456;10.850;2023-05-02T11:40:49;4.05;;;1.55;;
22191;SDS011;11261;52.456;10.850;2023-05-02T11:43:19;4.45;;;1.40;;
22191;SDS011;11261;52.456;10.850;2023-05-02T11:45:48;5.65;;;1.60;;
22191;SDS011;11261;52.456;10.850;2023-05-02T11:48:18;2.95;;;1.50;;
22191;SDS011;11261;52.456;10.850;2023-05-02T11:50:48;3.58;;;1.20;;
22191;SDS011;11261;52.456;10.850;2023-05-02T11:53:19;3.42;;;1.27;;
22191;SDS011;11261;52.456;10.850;2023-05-02T11:55:49;4.72;;;2.25;;
22191;SDS011;11261;52.456;10.850;2023-05-02T11:58:19;3.55;;;1.60;;
22191;SDS011;11261;52.456;10.850;2023-05-02T12:00:49;4.53;;;1.50;;
22191;SDS011;11261;52.456;10.850;2023-05-02T12:03:29;7.35;;;1.42;;
22191;SDS011;11261;52.456;10.850;2023-05-02T12:06:07;4.60;;;1.60;;
22191;SDS011;11261;52.456;10.850;2023-05-02T12:08:37;5.05;;;1.60;;
22191;SDS011;11261;52.456;10.850;2023-05-02T12:11:06;5.63;;;1.73;;
22191;SDS011;11261;52.456;10.850;2023-05-02T12:13:37;4.93;;;1.67;;
22191;SDS011;11261;52.456;10.850;2023-05-02T12:16:12;5.80;;;1.63;;
22191;SDS011;11261;52.456;10.850;2023-05-02T12:18:42;7.93;;;1.95;;
22191;SDS011;11261;52.456;10.850;2023-05-02T12:21:10;2.72;;;1.70;;
22191;SDS011;11261;52.456;10.850;2023-05-02T12:23:39;3.88;;;1.27;;
22191;SDS011;11261;52.456;10.850;2023-05-02T12:26:17;7.35;;;1.80;;
22191;SDS011;11261;52.456;10.850;2023-05-02T12:28:48;5.97;;;1.90;;
22191;SDS011;11261;52.456;10.850;2023-05-02T12:31:16;6.50;;;1.80;;
22191;SDS011;11261;52.456;10.850;2023-05-02T12:33:47;7.57;;;2.00;;
22191;SDS011;11261;52.456;10.850;2023-05-02T12:36:17;3.53;;;1.60;;
22191;SDS011;11261;52.456;10.850;2023-05-02T12:38:49;3.58;;;1.75;;
22191;SDS011;11261;52.456;10.850;2023-05-02T12:41:29;3.88;;;1.45;;
22191;SDS011;11261;52.456;10.850;2023-05-02T12:43:59;1.77;;;1.33;;
22191;SDS011;11261;52.456;10.850;2023-05-02T12:46:27;3.55;;;1.50;;
22191;SDS011;11261;52.456;10.850;2023-05-02T12:49:03;3.70;;;1.15;;
22191;SDS011;11261;52.456;10.850;2023-05-02T12:51:34;3.80;;;1.50;;
22191;SDS011;11261;52.456;10.850;2023-05-02T12:54:02;5.20;;;1.50;;
22191;SDS011;11261;52.456;10.850;2023-05-02T12:56:37;5.22;;;1.67;;
22191;SDS011;11261;52.456;10.850;2023-05-02T12:59:06;5.20;;;1.58;;
22191;SDS011;11261;52.456;10.850;2023-05-02T13:01:34;5.07;;;2.28;;
22191;SDS011;11261;52.456;10.850;2023-05-02T13:04:04;4.55;;;1.52;;
22191;SDS011;11261;52.456;10.850;2023-05-02T13:06:33;2.90;;;1.38;;
22191;SDS011;11261;52.456;10.850;2023-05-02T13:09:03;5.28;;;1.38;;
22191;SDS011;11261;52.456;10.850;2023-05-02T13:11:31;2.67;;;1.30;;
22191;SDS011;11261;52.456;10.850;2023-05-02T13:14:00;8.05;;;1.70;;
22191;SDS011;11261;52.456;10.850;2023-05-02T13:16:31;3.95;;;1.58;;
22191;SDS011;11261;52.456;10.850;2023-05-02T13:19:02;4.63;;;1.52;;
22191;SDS011;11261;52.456;10.850;2023-05-02T13:21:32;4.88;;;1.45;;
22191;SDS011;11261;52.456;10.850;2023-05-02T13:24:00;5.85;;;1.77;;
22191;SDS011;11261;52.456;10.850;2023-05-02T13:26:29;5.32;;;1.92;;
22191;SDS011;11261;52.456;10.850;2023-05-02T13:28:57;2.65;;;1.38;;
22191;SDS011;11261;52.456;10.850;2023-05-02T13:31:25;5.22;;;1.73;;
22191;SDS011;11261;52.456;10.850;2023-05-02T13:33:54;6.88;;;1.70;;
22191;SDS011;11261;52.456;10.850;2023-05-02T13:36:23;4.97;;;1.30;;
22191;SDS011;11261;52.456;10.850;2023-05-02T13:38:52;5.63;;;1.67;;
22191;SDS011;11261;52.456;10.850;2023-05-02T13:41:20;2.83;;;1.30;;
22191;SDS011;11261;52.456;10.850;2023-05-02T13:43:48;4.68;;;1.80;;
22191;SDS011;11261;52.456;10.850;2023-05-02T13:46:17;2.45;;;1.58;;
22191;SDS011;11261;52.456;10.850;2023-05-02T13:48:45;4.60;;;1.33;;
22191;SDS011;11261;52.456;10.850;2023-05-02T13:51:13;3.83;;;1.20;;
22191;SDS011;11261;52.456;10.850;2023-05-02T13:53:43;1.35;;;0.90;;
22191;SDS011;11261;52.456;10.850;2023-05-02T13:56:11;2.42;;;1.30;;
22191;SDS011;11261;52.456;10.850;2023-05-02T13:58:39;3.30;;;1.10;;
22191;SDS011;11261;52.456;10.850;2023-05-02T14:01:07;2.30;;;1.33;;
22191;SDS011;11261;52.456;10.850;2023-05-02T14:03:36;3.58;;;1.17;;
22191;SDS011;11261;52.456;10.850;2023-05-02T14:06:04;3.03;;;1.20;;
22191;SDS011;11261;52.456;10.850;2023-05-02T14:08:33;5.53;;;1.33;;
22191;SDS011;11261;52.456;10.850;2023-05-02T14:11:02;3.30;;;1.40;;
22191;SDS011;11261;52.456;10.850;2023-05-02T14:13:32;1.50;;;1.27;;
22191;SDS011;11261;52.456;10.850;2023-05-02T14:16:00;2.70;;;1.15;;
22191;SDS011;11261;52.456;10.850;2023-05-02T14:18:29;3.05;;;1.30;;
22191;SDS011;11261;52.456;10.850;2023-05-02T14:20:57;3.33;;;1.45;;
22191;SDS011;11261;52.456;10.850;2023-05-02T14:23:25;5.50;;;1.27;;
22191;SDS011;11261;52.456;10.850;2023-05-02T14:25:54;3.60;;;1.00;;
22191;SDS011;11261;52.456;10.850;2023-05-02T14:28:24;2.92;;;1.23;;
22191;SDS011;11261;52.456;10.850;2023-05-02T14:30:52;2.10;;;1.08;;
22191;SDS011;11261;52.456;10.850;2023-05-02T14:33:21;2.90;;;1.17;;
22191;SDS011;11261;52.456;10.850;2023-05-02T14:35:49;3.03;;;1.10;;
22191;SDS011;11261;52.456;10.850;2023-05-02T14:38:17;3.00;;;1.10;;
22191;SDS011;11261;52.456;10.850;2023-05-02T14:40:46;2.50;;;1.38;;
22191;SDS011;11261;52.456;10.850;2023-05-02T14:43:14;3.78;;;1.30;;
22191;SDS011;11261;52.456;10.850;2023-05-02T14:45:43;3.97;;;1.02;;
22191;SDS011;11261;52.456;10.850;2023-05-02T14:48:11;2.28;;;1.20;;
22191;SDS011;11261;52.456;10.850;2023-05-02T14:50:42;3.85;;;1.10;;
22191;SDS011;11261;52.456;10.850;2023-05-02T14:53:10;2.45;;;0.93;;
22191;SDS011;11261;52.456;10.850;2023-05-02T14:55:38;0.90;;;0.80;;
22191;SDS011;11261;52.456;10.850;2023-05-02T14:58:07;1.75;;;0.90;;
22191;SDS011;11261;52.456;10.850;2023-05-02T15:00:36;3.05;;;1.00;;
22191;SDS011;11261;52.456;10.850;2023-05-02T15:03:06;2.13;;;1.02;;
22191;SDS011;11261;52.456;10.850;2023-05-02T15:05:35;1.83;;;0.90;;